National Weather Service United States Department of Commerce
 

KJFK Terminal Weather: (Wind Directions Are True, Except Where Noted, ADD 13 degrees for Magnetic)  

Latest Wind Data for KJFK
 Click for GRAPH of Ribbon Display   Click for TEXT of Ribbon Display and ASOS Winds

Latest KJFK METAR
METAR KJFK 190751Z 11006KT 10SM SCT250 01/M01 A3055 RMK AO2 SLP343
      T00061011

Latest KJFK TAFDecoded KJFK TAF (Click Image to Enlarge)
  KJFK 190526Z 1906/2012 VRB03KT P6SM SCT250
     FM190900 15007KT P6SM BKN250
     FM191500 17010KT P6SM SCT080 BKN250
     FM192000 17010KT P6SM SCT025 BKN050
     FM192200 19008KT 4SM -SHRA BR BKN020 OVC040
     FM200300 20005KT 5SM BR BKN010
     FM200700 21006KT 2SM BR OVC007



 
JFK Hourly Forecast Temperature (Degrees C) - Time is Local !

KLGA Terminal Weather: (Wind Directions Are True, Except Where Noted, ADD 13 degrees for Magnetic)  

Latest Wind Data for KLGA
 Click for GRAPH of Ribbon Display   Click for TEXT of Ribbon Display and ASOS Winds

Latest KLGA METAR
METAR KLGA 190751Z 14007KT 10SM SCT250 02/M04 A3053 RMK AO2 SLP337
     T00221039 $

Latest KLGA TAFDecoded KLGA TAF (Click Image to Enlarge)
  KLGA 190526Z 1906/2012 VRB04KT P6SM SCT250
     FM190900 15006KT P6SM BKN250
     FM191500 16008KT P6SM SCT100 BKN250
     FM192000 17007KT P6SM FEW025 BKN050
     FM192200 18007KT 5SM -SHRA BR BKN020 OVC040
     FM200400 20006KT 5SM BR BKN012
     FM200700 20005KT 2SM BR OVC010





 

 

LGA Hourly Forecast Temperature (Degrees C) - Time is Local !

KEWR Terminal Weather: (Wind Directions Are True, Except Where Noted, ADD 13 degrees for Magnetic)  

Latest Wind Data for KEWR
 Click for GRAPH of Ribbon Display   Click for TEXT of Ribbon Display and ASOS Winds

Latest KEWR METAR
METAR KEWR 190751Z 00000KT 10SM BKN250 02/M03 A3053 RMK AO2 SLP336
     T00221028

Latest KEWR TAFDecoded KEWR TAF (Click Image to Enlarge)
  KEWR 190526Z 1906/2012 VRB02KT P6SM SCT250
     FM191200 15006KT P6SM BKN250
     FM191600 19007KT P6SM SCT070 BKN250
     FM192000 19006KT P6SM SCT025 BKN050
     FM192200 20005KT 5SM -SHRA BR BKN025 OVC050
     FM200300 20004KT 4SM BR BKN012
     FM200700 VRB03KT 3SM BR OVC009


EWR Hourly Forecast Temperature (Degrees C) - Time is Local ! 
 

Afternoon EWR Haze Potential Forecast: 

KTEB Terminal Weather: (Wind Directions Are True, Except Where Noted, ADD 13 degrees for Magnetic)
Latest KTEB METAR
METAR KTEB 190751Z VRB04KT 10SM CLR 02/M03 A3052 RMK AO2 SLP334
     T00171033 $

Latest KTEB TAFDecoded KTEB TAF (Click Image to Enlarge)
  KTEB 190526Z 1906/2012 VRB02KT P6SM SCT250
     FM191300 17005KT P6SM BKN250
     FM192000 16006KT P6SM SCT025 BKN050
     FM192200 VRB04KT 5SM -SHRA BR BKN012 OVC030
     FM200400 VRB03KT 2SM BR OVC007






 

 

KHPN Terminal Weather: (Wind Directions Are True, Except Where Noted, ADD 13 degrees for Magnetic)
Latest KHPN METAR
METAR KHPN 190656Z 10003KT 10SM CLR M02/M05 A3050 RMK AO2 SLP336
     T10171050

Latest KHPN TAFDecoded KHPN TAF (Click Image to Enlarge)
  KHPN 190526Z 1906/2006 VRB02KT P6SM SCT250
     FM191400 16006KT P6SM BKN250
     FM191900 15005KT P6SM SCT025 BKN050
     FM192200 VRB04KT 4SM -SHRA BR BKN015 OVC030
     FM200400 VRB02KT 1 1/2SM BR OVC005 AMD NOT SKED






 
KISP Terminal Weather: (Wind Directions Are True, Except Where Noted, ADD 13 degrees for Magnetic)
Latest KISP METAR
METAR KISP 190656Z AUTO 11003KT 10SM CLR M01/M05 A3053 RMK AO2 SLP339
     T10111050

Latest KISP TAFDecoded KISP TAF (Click Image to Enlarge)
  KISP 190526Z 1906/2006 VRB03KT P6SM BKN250
     FM190900 15004KT P6SM BKN250
     FM191800 18008KT P6SM SCT030 BKN040
     FM192300 19008KT 5SM -SHRA BR BKN015 OVC025
     FM200500 20006KT 2SM BR OVC009






 

ZNY WINTER Season Information:

N90 AirSpace Impacts

******  PIREPS  ******


Surface Weather Map

Surface Weather Map

N90 Icing Forecast

N90 Icing Forecast

Compression Outlook

Compression Outlook

N90 DAY 1 SWAP Outlook (Issued if Expected outside SWAP Season)

N90 Day 1 SWAP Outlook

 

Compression Forecast (Experimental) ... (Issued if Expected)

Compression Forecast

N90 DAY 2 SWAP Outlook (Issued if Expected outside SWAP Season

N90 Day 2 SWAP Outlook

TCM Convective Forecast (TCF) (Mar-Oct)

FAA Training (Use Internet Explorer Only !)


Vertical Wind Profile

RED LINE is the "Highest" Freezing Level - Lower Freezing Levels Can Exist.